sensor_id;sensor_type;location;lat;lon;timestamp;P1;durP1;ratioP1;P2;durP2;ratioP2
9884;SDS011;4981;50.966;4.842;2022-11-24T00:01:08;13.83;;;3.13;;
9884;SDS011;4981;50.966;4.842;2022-11-24T00:03:36;14.03;;;3.00;;
9884;SDS011;4981;50.966;4.842;2022-11-24T00:06:04;17.20;;;3.10;;
9884;SDS011;4981;50.966;4.842;2022-11-24T00:08:32;15.00;;;3.20;;
9884;SDS011;4981;50.966;4.842;2022-11-24T00:11:05;16.00;;;3.20;;
9884;SDS011;4981;50.966;4.842;2022-11-24T00:13:35;18.53;;;4.33;;
9884;SDS011;4981;50.966;4.842;2022-11-24T00:16:04;13.93;;;3.33;;
9884;SDS011;4981;50.966;4.842;2022-11-24T00:18:33;13.53;;;3.37;;
9884;SDS011;4981;50.966;4.842;2022-11-24T00:21:00;19.00;;;3.30;;
9884;SDS011;4981;50.966;4.842;2022-11-24T00:23:30;13.57;;;3.50;;
9884;SDS011;4981;50.966;4.842;2022-11-24T00:26:06;13.73;;;3.20;;
9884;SDS011;4981;50.966;4.842;2022-11-24T00:28:35;14.63;;;2.77;;
9884;SDS011;4981;50.966;4.842;2022-11-24T00:31:04;15.57;;;3.43;;
9884;SDS011;4981;50.966;4.842;2022-11-24T00:33:40;17.07;;;3.33;;
9884;SDS011;4981;50.966;4.842;2022-11-24T00:36:07;18.63;;;3.57;;
9884;SDS011;4981;50.966;4.842;2022-11-24T00:38:34;16.07;;;3.27;;
9884;SDS011;4981;50.966;4.842;2022-11-24T00:41:06;14.13;;;3.33;;
9884;SDS011;4981;50.966;4.842;2022-11-24T00:43:34;11.53;;;2.60;;
9884;SDS011;4981;50.966;4.842;2022-11-24T00:46:01;18.13;;;3.53;;
9884;SDS011;4981;50.966;4.842;2022-11-24T00:48:28;12.60;;;2.83;;
9884;SDS011;4981;50.966;4.842;2022-11-24T00:50:56;15.03;;;3.30;;
9884;SDS011;4981;50.966;4.842;2022-11-24T00:53:24;18.57;;;3.73;;
9884;SDS011;4981;50.966;4.842;2022-11-24T00:55:52;20.50;;;4.37;;
9884;SDS011;4981;50.966;4.842;2022-11-24T00:58:22;16.10;;;3.13;;
9884;SDS011;4981;50.966;4.842;2022-11-24T01:00:53;18.10;;;3.27;;
9884;SDS011;4981;50.966;4.842;2022-11-24T01:03:26;15.60;;;2.93;;
9884;SDS011;4981;50.966;4.842;2022-11-24T01:05:53;15.63;;;2.90;;
9884;SDS011;4981;50.966;4.842;2022-11-24T01:08:20;15.27;;;3.43;;
9884;SDS011;4981;50.966;4.842;2022-11-24T01:10:47;17.03;;;3.60;;
9884;SDS011;4981;50.966;4.842;2022-11-24T01:13:15;16.43;;;3.90;;
9884;SDS011;4981;50.966;4.842;2022-11-24T01:15:43;17.97;;;2.93;;
9884;SDS011;4981;50.966;4.842;2022-11-24T01:18:11;15.20;;;4.07;;
9884;SDS011;4981;50.966;4.842;2022-11-24T01:20:38;16.60;;;3.27;;
9884;SDS011;4981;50.966;4.842;2022-11-24T01:23:05;16.80;;;3.90;;
9884;SDS011;4981;50.966;4.842;2022-11-24T01:25:32;21.90;;;4.17;;
9884;SDS011;4981;50.966;4.842;2022-11-24T01:27:59;22.47;;;4.40;;
9884;SDS011;4981;50.966;4.842;2022-11-24T01:30:26;15.87;;;3.80;;
9884;SDS011;4981;50.966;4.842;2022-11-24T01:32:55;18.43;;;4.17;;
9884;SDS011;4981;50.966;4.842;2022-11-24T01:35:22;19.57;;;4.03;;
9884;SDS011;4981;50.966;4.842;2022-11-24T01:37:51;22.07;;;3.83;;
9884;SDS011;4981;50.966;4.842;2022-11-24T01:40:18;14.60;;;3.50;;
9884;SDS011;4981;50.966;4.842;2022-11-24T01:42:46;20.70;;;4.50;;
9884;SDS011;4981;50.966;4.842;2022-11-24T01:45:31;22.43;;;4.80;;
9884;SDS011;4981;50.966;4.842;2022-11-24T01:48:03;18.40;;;4.07;;
9884;SDS011;4981;50.966;4.842;2022-11-24T01:50:32;20.37;;;3.50;;
9884;SDS011;4981;50.966;4.842;2022-11-24T01:53:01;21.57;;;4.07;;
9884;SDS011;4981;50.966;4.842;2022-11-24T01:55:30;22.77;;;4.43;;
9884;SDS011;4981;50.966;4.842;2022-11-24T01:58:02;17.70;;;4.17;;
9884;SDS011;4981;50.966;4.842;2022-11-24T02:00:31;18.73;;;4.27;;
9884;SDS011;4981;50.966;4.842;2022-11-24T02:03:03;21.13;;;3.80;;
9884;SDS011;4981;50.966;4.842;2022-11-24T02:05:32;27.97;;;4.43;;
9884;SDS011;4981;50.966;4.842;2022-11-24T02:08:04;14.93;;;3.53;;
9884;SDS011;4981;50.966;4.842;2022-11-24T02:10:38;22.07;;;4.63;;
9884;SDS011;4981;50.966;4.842;2022-11-24T02:13:05;17.27;;;3.60;;
9884;SDS011;4981;50.966;4.842;2022-11-24T02:15:33;19.07;;;3.80;;
9884;SDS011;4981;50.966;4.842;2022-11-24T02:18:02;21.40;;;4.83;;
9884;SDS011;4981;50.966;4.842;2022-11-24T02:20:30;19.27;;;4.37;;
9884;SDS011;4981;50.966;4.842;2022-11-24T02:22:59;18.57;;;3.87;;
9884;SDS011;4981;50.966;4.842;2022-11-24T02:25:33;21.97;;;4.13;;
9884;SDS011;4981;50.966;4.842;2022-11-24T02:28:11;20.80;;;4.17;;
9884;SDS011;4981;50.966;4.842;2022-11-24T02:30:41;24.10;;;4.00;;
9884;SDS011;4981;50.966;4.842;2022-11-24T02:33:09;22.40;;;4.50;;
9884;SDS011;4981;50.966;4.842;2022-11-24T02:35:37;32.50;;;5.33;;
9884;SDS011;4981;50.966;4.842;2022-11-24T02:38:09;21.93;;;4.60;;
9884;SDS011;4981;50.966;4.842;2022-11-24T02:40:38;19.37;;;4.53;;
9884;SDS011;4981;50.966;4.842;2022-11-24T02:43:11;16.73;;;3.73;;
9884;SDS011;4981;50.966;4.842;2022-11-24T02:45:40;18.40;;;3.53;;
9884;SDS011;4981;50.966;4.842;2022-11-24T02:48:08;22.23;;;4.43;;
9884;SDS011;4981;50.966;4.842;2022-11-24T02:50:36;22.67;;;4.40;;
9884;SDS011;4981;50.966;4.842;2022-11-24T02:53:03;22.73;;;3.83;;
9884;SDS011;4981;50.966;4.842;2022-11-24T02:55:30;19.87;;;4.23;;
9884;SDS011;4981;50.966;4.842;2022-11-24T02:57:58;26.17;;;4.83;;
9884;SDS011;4981;50.966;4.842;2022-11-24T03:00:27;22.30;;;4.37;;
9884;SDS011;4981;50.966;4.842;2022-11-24T03:02:57;27.23;;;5.33;;
9884;SDS011;4981;50.966;4.842;2022-11-24T03:05:24;23.17;;;4.40;;
9884;SDS011;4981;50.966;4.842;2022-11-24T03:07:51;22.03;;;4.30;;
9884;SDS011;4981;50.966;4.842;2022-11-24T03:10:19;22.97;;;5.23;;
9884;SDS011;4981;50.966;4.842;2022-11-24T03:12:46;17.97;;;4.30;;
9884;SDS011;4981;50.966;4.842;2022-11-24T03:15:13;17.17;;;4.00;;
9884;SDS011;4981;50.966;4.842;2022-11-24T03:17:42;19.97;;;3.87;;
9884;SDS011;4981;50.966;4.842;2022-11-24T03:20:09;21.13;;;4.03;;
9884;SDS011;4981;50.966;4.842;2022-11-24T03:22:37;17.70;;;4.67;;
9884;SDS011;4981;50.966;4.842;2022-11-24T03:25:06;20.53;;;4.23;;
9884;SDS011;4981;50.966;4.842;2022-11-24T03:27:34;23.67;;;4.70;;
9884;SDS011;4981;50.966;4.842;2022-11-24T03:30:01;23.67;;;4.03;;
9884;SDS011;4981;50.966;4.842;2022-11-24T03:32:28;23.40;;;4.10;;
9884;SDS011;4981;50.966;4.842;2022-11-24T03:34:57;21.97;;;4.03;;
9884;SDS011;4981;50.966;4.842;2022-11-24T03:37:24;21.67;;;4.00;;
9884;SDS011;4981;50.966;4.842;2022-11-24T03:39:54;18.30;;;4.20;;
9884;SDS011;4981;50.966;4.842;2022-11-24T03:42:24;24.00;;;4.37;;
9884;SDS011;4981;50.966;4.842;2022-11-24T03:44:51;22.23;;;5.03;;
9884;SDS011;4981;50.966;4.842;2022-11-24T03:47:18;23.40;;;6.57;;
9884;SDS011;4981;50.966;4.842;2022-11-24T03:49:48;18.57;;;5.77;;
9884;SDS011;4981;50.966;4.842;2022-11-24T03:52:16;21.63;;;4.63;;
9884;SDS011;4981;50.966;4.842;2022-11-24T03:54:43;23.87;;;5.30;;
9884;SDS011;4981;50.966;4.842;2022-11-24T03:57:12;16.40;;;3.37;;
9884;SDS011;4981;50.966;4.842;2022-11-24T03:59:39;18.20;;;4.10;;
9884;SDS011;4981;50.966;4.842;2022-11-24T04:02:06;19.40;;;4.37;;
9884;SDS011;4981;50.966;4.842;2022-11-24T04:04:33;15.73;;;3.83;;
9884;SDS011;4981;50.966;4.842;2022-11-24T04:07:00;20.07;;;5.47;;
9884;SDS011;4981;50.966;4.842;2022-11-24T04:09:29;18.27;;;4.97;;
9884;SDS011;4981;50.966;4.842;2022-11-24T04:11:56;22.97;;;4.20;;
9884;SDS011;4981;50.966;4.842;2022-11-24T04:14:40;17.53;;;4.47;;
9884;SDS011;4981;50.966;4.842;2022-11-24T04:17:07;21.63;;;4.13;;
9884;SDS011;4981;50.966;4.842;2022-11-24T04:19:35;19.13;;;3.90;;
9884;SDS011;4981;50.966;4.842;2022-11-24T04:22:02;18.73;;;3.77;;
9884;SDS011;4981;50.966;4.842;2022-11-24T04:24:30;15.13;;;3.60;;
9884;SDS011;4981;50.966;4.842;2022-11-24T04:26:58;13.37;;;2.80;;
9884;SDS011;4981;50.966;4.842;2022-11-24T04:29:25;13.30;;;3.03;;
9884;SDS011;4981;50.966;4.842;2022-11-24T04:31:52;15.43;;;3.03;;
9884;SDS011;4981;50.966;4.842;2022-11-24T04:34:20;16.33;;;2.80;;
9884;SDS011;4981;50.966;4.842;2022-11-24T04:36:48;12.43;;;2.73;;
9884;SDS011;4981;50.966;4.842;2022-11-24T04:39:16;11.03;;;2.20;;
9884;SDS011;4981;50.966;4.842;2022-11-24T04:41:47;10.13;;;2.30;;
9884;SDS011;4981;50.966;4.842;2022-11-24T04:44:14;9.70;;;1.97;;
9884;SDS011;4981;50.966;4.842;2022-11-24T04:46:42;8.67;;;2.00;;
9884;SDS011;4981;50.966;4.842;2022-11-24T04:49:09;9.23;;;1.80;;
9884;SDS011;4981;50.966;4.842;2022-11-24T04:51:36;9.73;;;1.60;;
9884;SDS011;4981;50.966;4.842;2022-11-24T04:54:04;6.63;;;1.93;;
9884;SDS011;4981;50.966;4.842;2022-11-24T04:56:32;7.90;;;1.40;;
9884;SDS011;4981;50.966;4.842;2022-11-24T04:59:01;5.93;;;1.53;;
9884;SDS011;4981;50.966;4.842;2022-11-24T05:01:28;6.60;;;1.00;;
9884;SDS011;4981;50.966;4.842;2022-11-24T05:03:56;7.90;;;1.40;;
9884;SDS011;4981;50.966;4.842;2022-11-24T05:06:24;6.20;;;1.40;;
9884;SDS011;4981;50.966;4.842;2022-11-24T05:08:51;4.20;;;1.20;;
9884;SDS011;4981;50.966;4.842;2022-11-24T05:11:18;4.00;;;1.13;;
9884;SDS011;4981;50.966;4.842;2022-11-24T05:13:46;7.77;;;1.50;;
9884;SDS011;4981;50.966;4.842;2022-11-24T05:16:14;7.20;;;1.30;;
9884;SDS011;4981;50.966;4.842;2022-11-24T05:18:42;4.37;;;0.90;;
9884;SDS011;4981;50.966;4.842;2022-11-24T05:21:09;3.57;;;0.93;;
9884;SDS011;4981;50.966;4.842;2022-11-24T05:23:36;3.40;;;0.80;;
9884;SDS011;4981;50.966;4.842;2022-11-24T05:26:04;3.00;;;0.90;;
9884;SDS011;4981;50.966;4.842;2022-11-24T05:28:32;3.57;;;1.10;;
9884;SDS011;4981;50.966;4.842;2022-11-24T05:30:59;3.90;;;0.80;;
9884;SDS011;4981;50.966;4.842;2022-11-24T05:33:29;6.87;;;1.00;;
9884;SDS011;4981;50.966;4.842;2022-11-24T05:35:59;3.23;;;0.93;;
9884;SDS011;4981;50.966;4.842;2022-11-24T05:38:27;2.40;;;0.90;;
9884;SDS011;4981;50.966;4.842;2022-11-24T05:40:58;3.67;;;1.00;;
9884;SDS011;4981;50.966;4.842;2022-11-24T05:43:26;4.27;;;1.23;;
9884;SDS011;4981;50.966;4.842;2022-11-24T05:45:53;4.43;;;0.80;;
9884;SDS011;4981;50.966;4.842;2022-11-24T05:48:23;6.03;;;0.87;;
9884;SDS011;4981;50.966;4.842;2022-11-24T05:50:55;4.27;;;0.80;;
9884;SDS011;4981;50.966;4.842;2022-11-24T05:53:23;2.50;;;0.90;;
9884;SDS011;4981;50.966;4.842;2022-11-24T05:55:51;3.23;;;0.83;;
9884;SDS011;4981;50.966;4.842;2022-11-24T05:58:18;4.40;;;0.80;;
9884;SDS011;4981;50.966;4.842;2022-11-24T06:00:45;7.47;;;1.33;;
9884;SDS011;4981;50.966;4.842;2022-11-24T06:03:15;3.03;;;0.80;;
9884;SDS011;4981;50.966;4.842;2022-11-24T06:05:44;3.20;;;1.20;;
9884;SDS011;4981;50.966;4.842;2022-11-24T06:08:14;4.97;;;0.97;;
9884;SDS011;4981;50.966;4.842;2022-11-24T06:10:41;5.33;;;1.60;;
9884;SDS011;4981;50.966;4.842;2022-11-24T06:13:08;5.87;;;1.10;;
9884;SDS011;4981;50.966;4.842;2022-11-24T06:15:35;5.53;;;1.27;;
9884;SDS011;4981;50.966;4.842;2022-11-24T06:18:04;6.40;;;1.63;;
9884;SDS011;4981;50.966;4.842;2022-11-24T06:20:32;6.87;;;1.63;;
9884;SDS011;4981;50.966;4.842;2022-11-24T06:22:59;6.77;;;1.30;;
9884;SDS011;4981;50.966;4.842;2022-11-24T06:25:28;6.67;;;1.30;;
9884;SDS011;4981;50.966;4.842;2022-11-24T06:27:56;8.77;;;1.87;;
9884;SDS011;4981;50.966;4.842;2022-11-24T06:30:23;9.50;;;1.50;;
9884;SDS011;4981;50.966;4.842;2022-11-24T06:32:53;10.30;;;2.47;;
9884;SDS011;4981;50.966;4.842;2022-11-24T06:35:21;10.30;;;1.93;;
9884;SDS011;4981;50.966;4.842;2022-11-24T06:37:48;10.33;;;2.03;;
9884;SDS011;4981;50.966;4.842;2022-11-24T06:40:15;11.70;;;2.07;;
9884;SDS011;4981;50.966;4.842;2022-11-24T06:42:47;9.23;;;2.20;;
9884;SDS011;4981;50.966;4.842;2022-11-24T06:45:19;7.30;;;2.13;;
9884;SDS011;4981;50.966;4.842;2022-11-24T06:47:47;8.43;;;2.03;;
9884;SDS011;4981;50.966;4.842;2022-11-24T06:50:14;12.17;;;2.30;;
9884;SDS011;4981;50.966;4.842;2022-11-24T06:52:42;11.70;;;2.33;;
9884;SDS011;4981;50.966;4.842;2022-11-24T06:55:09;11.80;;;2.70;;
9884;SDS011;4981;50.966;4.842;2022-11-24T06:57:36;11.10;;;2.27;;
9884;SDS011;4981;50.966;4.842;2022-11-24T07:00:05;9.63;;;2.00;;
9884;SDS011;4981;50.966;4.842;2022-11-24T07:02:33;11.07;;;2.80;;
9884;SDS011;4981;50.966;4.842;2022-11-24T07:05:00;8.57;;;2.23;;
9884;SDS011;4981;50.966;4.842;2022-11-24T07:07:28;9.60;;;2.40;;
9884;SDS011;4981;50.966;4.842;2022-11-24T07:09:55;11.23;;;2.10;;
9884;SDS011;4981;50.966;4.842;2022-11-24T07:12:22;9.57;;;2.20;;
9884;SDS011;4981;50.966;4.842;2022-11-24T07:14:50;11.93;;;2.97;;
9884;SDS011;4981;50.966;4.842;2022-11-24T07:17:18;12.93;;;3.30;;
9884;SDS011;4981;50.966;4.842;2022-11-24T07:19:45;14.97;;;3.50;;
9884;SDS011;4981;50.966;4.842;2022-11-24T07:22:13;12.97;;;3.20;;
9884;SDS011;4981;50.966;4.842;2022-11-24T07:24:40;17.20;;;5.53;;
9884;SDS011;4981;50.966;4.842;2022-11-24T07:27:08;13.67;;;3.80;;
9884;SDS011;4981;50.966;4.842;2022-11-24T07:29:35;12.57;;;3.27;;
9884;SDS011;4981;50.966;4.842;2022-11-24T07:32:02;26.13;;;9.90;;
9884;SDS011;4981;50.966;4.842;2022-11-24T07:34:31;11.27;;;3.20;;
9884;SDS011;4981;50.966;4.842;2022-11-24T07:36:58;10.87;;;2.80;;
9884;SDS011;4981;50.966;4.842;2022-11-24T07:39:26;14.37;;;3.40;;
9884;SDS011;4981;50.966;4.842;2022-11-24T07:41:53;10.37;;;2.50;;
9884;SDS011;4981;50.966;4.842;2022-11-24T07:44:20;11.50;;;2.63;;
9884;SDS011;4981;50.966;4.842;2022-11-24T07:46:48;12.10;;;3.33;;
9884;SDS011;4981;50.966;4.842;2022-11-24T07:49:16;11.07;;;3.73;;
9884;SDS011;4981;50.966;4.842;2022-11-24T07:51:45;9.63;;;2.50;;
9884;SDS011;4981;50.966;4.842;2022-11-24T07:54:13;10.67;;;2.93;;
9884;SDS011;4981;50.966;4.842;2022-11-24T07:56:42;6.50;;;2.37;;
9884;SDS011;4981;50.966;4.842;2022-11-24T07:59:09;11.13;;;2.60;;
9884;SDS011;4981;50.966;4.842;2022-11-24T08:01:36;12.10;;;3.13;;
9884;SDS011;4981;50.966;4.842;2022-11-24T08:04:04;10.93;;;4.53;;
9884;SDS011;4981;50.966;4.842;2022-11-24T08:06:31;10.93;;;2.50;;
9884;SDS011;4981;50.966;4.842;2022-11-24T08:08:59;16.03;;;3.57;;
9884;SDS011;4981;50.966;4.842;2022-11-24T08:11:27;16.23;;;3.30;;
9884;SDS011;4981;50.966;4.842;2022-11-24T08:13:57;9.37;;;3.50;;
9884;SDS011;4981;50.966;4.842;2022-11-24T08:16:24;7.77;;;2.30;;
9884;SDS011;4981;50.966;4.842;2022-11-24T08:18:51;9.57;;;2.37;;
9884;SDS011;4981;50.966;4.842;2022-11-24T08:21:20;20.70;;;8.77;;
9884;SDS011;4981;50.966;4.842;2022-11-24T08:23:48;12.27;;;2.80;;
9884;SDS011;4981;50.966;4.842;2022-11-24T08:26:20;13.63;;;3.63;;
9884;SDS011;4981;50.966;4.842;2022-11-24T08:28:51;6.00;;;1.77;;
9884;SDS011;4981;50.966;4.842;2022-11-24T08:31:20;10.27;;;2.47;;
9884;SDS011;4981;50.966;4.842;2022-11-24T08:33:47;6.83;;;1.90;;
9884;SDS011;4981;50.966;4.842;2022-11-24T08:36:14;8.33;;;2.13;;
9884;SDS011;4981;50.966;4.842;2022-11-24T08:38:43;9.20;;;2.13;;
9884;SDS011;4981;50.966;4.842;2022-11-24T08:41:14;7.13;;;2.07;;
9884;SDS011;4981;50.966;4.842;2022-11-24T08:43:43;8.87;;;2.33;;
9884;SDS011;4981;50.966;4.842;2022-11-24T08:46:11;12.23;;;2.03;;
9884;SDS011;4981;50.966;4.842;2022-11-24T08:48:40;7.13;;;1.50;;
9884;SDS011;4981;50.966;4.842;2022-11-24T08:51:09;8.97;;;2.17;;
9884;SDS011;4981;50.966;4.842;2022-11-24T08:53:37;12.17;;;2.30;;
9884;SDS011;4981;50.966;4.842;2022-11-24T08:56:06;11.53;;;2.67;;
9884;SDS011;4981;50.966;4.842;2022-11-24T08:58:34;8.77;;;2.10;;
9884;SDS011;4981;50.966;4.842;2022-11-24T09:01:07;10.73;;;3.20;;
9884;SDS011;4981;50.966;4.842;2022-11-24T09:03:36;12.00;;;3.43;;
9884;SDS011;4981;50.966;4.842;2022-11-24T09:06:04;13.67;;;3.70;;
9884;SDS011;4981;50.966;4.842;2022-11-24T09:08:33;13.47;;;5.00;;
9884;SDS011;4981;50.966;4.842;2022-11-24T09:11:04;12.83;;;3.57;;
9884;SDS011;4981;50.966;4.842;2022-11-24T09:13:33;16.67;;;5.83;;
9884;SDS011;4981;50.966;4.842;2022-11-24T09:16:01;10.00;;;3.70;;
9884;SDS011;4981;50.966;4.842;2022-11-24T09:18:32;8.47;;;3.80;;
9884;SDS011;4981;50.966;4.842;2022-11-24T09:21:06;15.17;;;3.97;;
9884;SDS011;4981;50.966;4.842;2022-11-24T09:23:34;10.30;;;2.50;;
9884;SDS011;4981;50.966;4.842;2022-11-24T09:26:02;10.87;;;2.97;;
9884;SDS011;4981;50.966;4.842;2022-11-24T09:28:30;7.30;;;2.50;;
9884;SDS011;4981;50.966;4.842;2022-11-24T09:30:59;17.20;;;3.70;;
9884;SDS011;4981;50.966;4.842;2022-11-24T09:33:27;11.03;;;2.83;;
9884;SDS011;4981;50.966;4.842;2022-11-24T09:35:57;10.80;;;2.60;;
9884;SDS011;4981;50.966;4.842;2022-11-24T09:38:24;9.20;;;2.60;;
9884;SDS011;4981;50.966;4.842;2022-11-24T09:40:55;10.87;;;2.73;;
9884;SDS011;4981;50.966;4.842;2022-11-24T09:43:32;10.70;;;2.63;;
9884;SDS011;4981;50.966;4.842;2022-11-24T09:46:07;9.53;;;1.90;;
9884;SDS011;4981;50.966;4.842;2022-11-24T09:48:40;13.27;;;2.53;;
9884;SDS011;4981;50.966;4.842;2022-11-24T09:51:13;14.53;;;2.47;;
9884;SDS011;4981;50.966;4.842;2022-11-24T09:53:41;12.93;;;2.50;;
9884;SDS011;4981;50.966;4.842;2022-11-24T09:56:15;9.23;;;2.10;;
9884;SDS011;4981;50.966;4.842;2022-11-24T09:58:46;8.70;;;2.03;;
9884;SDS011;4981;50.966;4.842;2022-11-24T10:01:15;8.40;;;2.27;;
9884;SDS011;4981;50.966;4.842;2022-11-24T10:03:44;14.67;;;2.77;;
9884;SDS011;4981;50.966;4.842;2022-11-24T10:06:18;15.67;;;3.20;;
9884;SDS011;4981;50.966;4.842;2022-11-24T10:11:57;9.43;;;2.50;;
9884;SDS011;4981;50.966;4.842;2022-11-24T10:17:27;10.60;;;2.30;;
9884;SDS011;4981;50.966;4.842;2022-11-24T10:20:02;10.87;;;2.33;;
9884;SDS011;4981;50.966;4.842;2022-11-24T10:22:40;13.00;;;2.60;;
9884;SDS011;4981;50.966;4.842;2022-11-24T10:25:14;7.73;;;2.43;;
9884;SDS011;4981;50.966;4.842;2022-11-24T10:27:47;7.43;;;2.37;;
9884;SDS011;4981;50.966;4.842;2022-11-24T10:30:20;11.97;;;3.30;;
9884;SDS011;4981;50.966;4.842;2022-11-24T10:32:51;15.97;;;3.40;;
9884;SDS011;4981;50.966;4.842;2022-11-24T10:35:25;10.63;;;3.23;;
9884;SDS011;4981;50.966;4.842;2022-11-24T10:38:07;14.13;;;2.90;;
9884;SDS011;4981;50.966;4.842;2022-11-24T10:40:42;18.30;;;4.47;;
9884;SDS011;4981;50.966;4.842;2022-11-24T10:43:12;13.33;;;2.77;;
9884;SDS011;4981;50.966;4.842;2022-11-24T10:45:40;16.00;;;3.37;;
9884;SDS011;4981;50.966;4.842;2022-11-24T10:48:18;14.27;;;4.63;;
9884;SDS011;4981;50.966;4.842;2022-11-24T10:50:47;19.77;;;4.57;;
9884;SDS011;4981;50.966;4.842;2022-11-24T10:53:21;20.63;;;9.27;;
9884;SDS011;4981;50.966;4.842;2022-11-24T10:55:58;12.53;;;3.07;;
9884;SDS011;4981;50.966;4.842;2022-11-24T10:58:28;12.43;;;2.60;;
9884;SDS011;4981;50.966;4.842;2022-11-24T11:00:57;12.53;;;4.43;;
9884;SDS011;4981;50.966;4.842;2022-11-24T11:03:27;18.10;;;7.80;;
9884;SDS011;4981;50.966;4.842;2022-11-24T11:05:59;17.43;;;6.90;;
9884;SDS011;4981;50.966;4.842;2022-11-24T11:08:31;18.37;;;3.97;;
9884;SDS011;4981;50.966;4.842;2022-11-24T11:11:11;15.60;;;3.87;;
9884;SDS011;4981;50.966;4.842;2022-11-24T11:13:51;8.07;;;2.80;;
9884;SDS011;4981;50.966;4.842;2022-11-24T11:16:23;12.27;;;2.80;;
9884;SDS011;4981;50.966;4.842;2022-11-24T11:18:52;16.67;;;4.63;;
9884;SDS011;4981;50.966;4.842;2022-11-24T11:21:27;15.53;;;4.40;;
9884;SDS011;4981;50.966;4.842;2022-11-24T11:23:59;15.57;;;2.70;;
9884;SDS011;4981;50.966;4.842;2022-11-24T11:26:33;14.60;;;3.60;;
9884;SDS011;4981;50.966;4.842;2022-11-24T11:29:07;12.60;;;2.97;;
9884;SDS011;4981;50.966;4.842;2022-11-24T11:31:40;12.57;;;2.70;;
9884;SDS011;4981;50.966;4.842;2022-11-24T11:34:17;15.67;;;3.43;;
9884;SDS011;4981;50.966;4.842;2022-11-24T11:36:45;15.50;;;3.90;;
9884;SDS011;4981;50.966;4.842;2022-11-24T11:42:10;12.30;;;2.93;;
9884;SDS011;4981;50.966;4.842;2022-11-24T11:44:44;13.93;;;3.37;;
9884;SDS011;4981;50.966;4.842;2022-11-24T11:47:17;11.40;;;2.83;;
9884;SDS011;4981;50.966;4.842;2022-11-24T11:49:49;12.23;;;2.20;;
9884;SDS011;4981;50.966;4.842;2022-11-24T11:52:30;10.80;;;2.30;;
9884;SDS011;4981;50.966;4.842;2022-11-24T11:58:31;19.90;;;3.73;;
9884;SDS011;4981;50.966;4.842;2022-11-24T12:01:24;14.03;;;4.00;;
9884;SDS011;4981;50.966;4.842;2022-11-24T12:04:10;14.57;;;2.50;;
9884;SDS011;4981;50.966;4.842;2022-11-24T12:06:51;11.93;;;2.87;;
9884;SDS011;4981;50.966;4.842;2022-11-24T12:09:44;11.87;;;3.20;;
9884;SDS011;4981;50.966;4.842;2022-11-24T12:12:29;15.77;;;3.40;;
9884;SDS011;4981;50.966;4.842;2022-11-24T12:15:14;10.63;;;3.40;;
9884;SDS011;4981;50.966;4.842;2022-11-24T12:17:48;12.33;;;2.70;;
9884;SDS011;4981;50.966;4.842;2022-11-24T12:20:32;12.67;;;3.07;;
9884;SDS011;4981;50.966;4.842;2022-11-24T12:23:10;14.00;;;3.70;;
9884;SDS011;4981;50.966;4.842;2022-11-24T12:25:44;13.00;;;2.70;;
9884;SDS011;4981;50.966;4.842;2022-11-24T12:28:25;13.13;;;2.93;;
9884;SDS011;4981;50.966;4.842;2022-11-24T12:31:03;14.00;;;2.70;;
9884;SDS011;4981;50.966;4.842;2022-11-24T12:33:42;10.27;;;2.87;;
9884;SDS011;4981;50.966;4.842;2022-11-24T12:36:25;13.93;;;3.20;;
9884;SDS011;4981;50.966;4.842;2022-11-24T12:39:00;18.00;;;3.30;;
9884;SDS011;4981;50.966;4.842;2022-11-24T12:41:38;10.70;;;2.50;;
9884;SDS011;4981;50.966;4.842;2022-11-24T12:44:29;15.63;;;3.10;;
9884;SDS011;4981;50.966;4.842;2022-11-24T12:47:09;9.43;;;2.30;;
9884;SDS011;4981;50.966;4.842;2022-11-24T12:49:45;13.13;;;2.93;;
9884;SDS011;4981;50.966;4.842;2022-11-24T12:52:24;15.50;;;2.73;;
9884;SDS011;4981;50.966;4.842;2022-11-24T12:54:55;16.17;;;2.77;;
9884;SDS011;4981;50.966;4.842;2022-11-24T12:57:26;12.13;;;2.70;;
9884;SDS011;4981;50.966;4.842;2022-11-24T13:00:00;15.10;;;3.63;;
9884;SDS011;4981;50.966;4.842;2022-11-24T13:02:35;11.40;;;2.93;;
9884;SDS011;4981;50.966;4.842;2022-11-24T13:05:14;15.17;;;3.63;;
9884;SDS011;4981;50.966;4.842;2022-11-24T13:07:49;13.33;;;3.00;;
9884;SDS011;4981;50.966;4.842;2022-11-24T13:10:28;16.77;;;3.40;;
9884;SDS011;4981;50.966;4.842;2022-11-24T13:12:58;17.33;;;3.37;;
9884;SDS011;4981;50.966;4.842;2022-11-24T13:15:29;14.30;;;2.30;;
9884;SDS011;4981;50.966;4.842;2022-11-24T13:17:57;12.80;;;3.23;;
9884;SDS011;4981;50.966;4.842;2022-11-24T13:20:26;15.13;;;3.10;;
9884;SDS011;4981;50.966;4.842;2022-11-24T13:22:57;17.67;;;4.10;;
9884;SDS011;4981;50.966;4.842;2022-11-24T13:25:27;13.53;;;3.70;;
9884;SDS011;4981;50.966;4.842;2022-11-24T13:27:57;14.33;;;3.10;;
9884;SDS011;4981;50.966;4.842;2022-11-24T13:33:35;15.97;;;4.27;;
9884;SDS011;4981;50.966;4.842;2022-11-24T13:38:59;15.07;;;3.60;;
9884;SDS011;4981;50.966;4.842;2022-11-24T13:44:51;15.53;;;3.63;;
9884;SDS011;4981;50.966;4.842;2022-11-24T13:50:13;21.57;;;8.60;;
9884;SDS011;4981;50.966;4.842;2022-11-24T13:52:51;19.87;;;6.20;;
9884;SDS011;4981;50.966;4.842;2022-11-24T13:55:27;14.13;;;3.70;;
9884;SDS011;4981;50.966;4.842;2022-11-24T13:57:58;21.23;;;5.20;;
9884;SDS011;4981;50.966;4.842;2022-11-24T14:00:32;29.43;;;12.47;;
9884;SDS011;4981;50.966;4.842;2022-11-24T14:03:02;23.27;;;9.90;;
9884;SDS011;4981;50.966;4.842;2022-11-24T14:05:38;16.07;;;4.80;;
9884;SDS011;4981;50.966;4.842;2022-11-24T14:08:15;12.33;;;3.00;;
9884;SDS011;4981;50.966;4.842;2022-11-24T14:10:45;16.93;;;3.17;;
9884;SDS011;4981;50.966;4.842;2022-11-24T14:13:16;15.07;;;2.73;;
9884;SDS011;4981;50.966;4.842;2022-11-24T14:16:01;14.60;;;3.77;;
9884;SDS011;4981;50.966;4.842;2022-11-24T14:18:31;11.17;;;2.97;;
9884;SDS011;4981;50.966;4.842;2022-11-24T14:21:00;17.57;;;3.00;;
9884;SDS011;4981;50.966;4.842;2022-11-24T14:23:42;13.50;;;3.33;;
9884;SDS011;4981;50.966;4.842;2022-11-24T14:26:14;14.13;;;3.03;;
9884;SDS011;4981;50.966;4.842;2022-11-24T14:28:45;10.17;;;2.87;;
9884;SDS011;4981;50.966;4.842;2022-11-24T14:31:20;14.97;;;2.93;;
9884;SDS011;4981;50.966;4.842;2022-11-24T14:33:52;12.00;;;2.90;;
9884;SDS011;4981;50.966;4.842;2022-11-24T14:36:38;13.43;;;3.30;;
9884;SDS011;4981;50.966;4.842;2022-11-24T14:39:06;12.73;;;2.83;;
9884;SDS011;4981;50.966;4.842;2022-11-24T14:41:38;14.23;;;3.03;;
9884;SDS011;4981;50.966;4.842;2022-11-24T14:44:11;10.27;;;3.20;;
9884;SDS011;4981;50.966;4.842;2022-11-24T14:46:42;11.83;;;2.63;;
9884;SDS011;4981;50.966;4.842;2022-11-24T14:49:14;12.93;;;3.87;;
9884;SDS011;4981;50.966;4.842;2022-11-24T14:51:43;15.07;;;3.03;;
9884;SDS011;4981;50.966;4.842;2022-11-24T14:54:12;12.70;;;3.10;;
9884;SDS011;4981;50.966;4.842;2022-11-24T14:56:54;13.07;;;3.10;;
9884;SDS011;4981;50.966;4.842;2022-11-24T14:59:23;14.67;;;2.70;;
9884;SDS011;4981;50.966;4.842;2022-11-24T15:01:52;13.10;;;2.73;;
9884;SDS011;4981;50.966;4.842;2022-11-24T15:04:21;13.07;;;3.17;;
9884;SDS011;4981;50.966;4.842;2022-11-24T15:06:59;15.73;;;3.53;;
9884;SDS011;4981;50.966;4.842;2022-11-24T15:09:29;13.83;;;3.30;;
9884;SDS011;4981;50.966;4.842;2022-11-24T15:12:03;51.53;;;23.50;;
9884;SDS011;4981;50.966;4.842;2022-11-24T15:14:44;28.47;;;9.10;;
9884;SDS011;4981;50.966;4.842;2022-11-24T15:17:16;18.60;;;6.07;;
9884;SDS011;4981;50.966;4.842;2022-11-24T15:19:47;14.60;;;5.10;;
9884;SDS011;4981;50.966;4.842;2022-11-24T15:22:30;20.80;;;5.43;;
9884;SDS011;4981;50.966;4.842;2022-11-24T15:25:00;11.27;;;3.53;;
9884;SDS011;4981;50.966;4.842;2022-11-24T15:27:28;20.77;;;4.60;;
9884;SDS011;4981;50.966;4.842;2022-11-24T15:29:55;11.83;;;4.63;;
9884;SDS011;4981;50.966;4.842;2022-11-24T15:32:22;16.37;;;4.77;;
9884;SDS011;4981;50.966;4.842;2022-11-24T15:34:51;14.97;;;4.80;;
9884;SDS011;4981;50.966;4.842;2022-11-24T15:37:18;13.40;;;4.03;;
9884;SDS011;4981;50.966;4.842;2022-11-24T15:39:45;15.87;;;5.13;;
9884;SDS011;4981;50.966;4.842;2022-11-24T15:42:13;17.67;;;5.10;;
9884;SDS011;4981;50.966;4.842;2022-11-24T15:44:40;12.60;;;3.33;;
9884;SDS011;4981;50.966;4.842;2022-11-24T15:47:07;13.50;;;3.67;;
9884;SDS011;4981;50.966;4.842;2022-11-24T15:49:36;16.87;;;3.80;;